Time;durP1;ratioP1;P1;durP2;ratioP2;P2;SDS_P1;SDS_P2;PMS_P1;PMS_P2;Temp;Humidity;BMP_temperature;BMP_pressure;BME280_temperature;BME280_humidity;BME280_pressure;Samples;Min_cycle;Max_cycle;Signal;HPM_P1;HPM_P2
2022/01/21 00:00:16;;;;;;;;;;;;;;;18.36;62.74;100779.47;5047243;28;1344;-35
2022/01/21 00:02:43;;;;;;;;;;;;;;;18.31;62.71;100771.84;5046368;28;1577;-34
2022/01/21 00:05:10;;;;;;;;;;;;;;;18.29;62.86;100790.72;5051067;28;1346;-34
2022/01/21 00:07:36;;;;;;;;;;;;;;;18.25;62.75;100799.97;5045904;28;1616;-34
2022/01/21 00:10:04;;;;;;;;;;;;;;;18.24;62.44;100809.00;5048102;28;1613;-35
2022/01/21 00:12:32;;;;;;;;;;;;;;;18.21;63.14;100814.59;5048162;28;1905;-35
2022/01/21 00:14:59;;;;;;;;;;;;;;;18.29;62.88;100801.44;5043820;28;1403;-35
2022/01/21 00:17:25;;;;;;;;;;;;;;;18.28;62.72;100826.50;5048127;28;1347;-35
2022/01/21 00:30:04;;;;;;;;;;;;;;;18.29;62.20;100832.72;5046596;28;1524;-35
2022/01/21 00:30:51;;;;;;;;;;;;;;;18.21;62.78;100851.25;5047184;28;1381;-35
2022/01/21 00:33:18;;;;;;;;;;;;;;;18.22;63.00;100853.81;5051591;28;1977;-34
2022/01/21 00:35:44;;;;;;;;;;;;;;;18.19;62.72;100843.34;5042416;28;1598;-34
2022/01/21 00:38:13;;;;;;;;;;;;;;;18.21;62.50;100848.56;5042416;28;1822;-35
2022/01/21 00:40:39;;;;;;;;;;;;;;;18.18;62.96;100835.41;5046453;28;1829;-35
2022/01/21 00:43:17;;;;;;;;;;;;;;;18.18;62.53;100830.91;5040338;28;1605;-35
2022/01/21 00:45:45;;;;;;;;;;;;;;;18.15;62.41;100817.81;5044910;28;1116;-35
2022/01/21 00:48:12;;;;;;;;;;;;;;;18.13;62.37;100814.41;5047607;28;1939;-34
2022/01/21 00:50:38;;;;;;;;;;;;;;;18.11;62.88;100819.03;5045583;28;1751;-34
2022/01/21 00:53:05;;;;;;;;;;;;;;;18.11;62.91;100820.88;5042897;28;1903;-34
2022/01/21 00:55:31;;;;;;;;;;;;;;;18.14;62.58;100810.75;5045368;28;1749;-34
2022/01/21 00:57:58;;;;;;;;;;;;;;;18.13;61.96;100822.44;5041133;28;1387;-34
2022/01/21 01:00:24;;;;;;;;;;;;;;;18.13;62.51;100826.94;5043367;28;1477;-35
2022/01/21 01:02:52;;;;;;;;;;;;;;;18.18;62.42;100819.38;5046984;28;1972;-34
2022/01/21 01:05:19;;;;;;;;;;;;;;;18.17;62.60;100823.88;5042948;28;1689;-34
2022/01/21 01:07:45;;;;;;;;;;;;;;;18.15;62.48;100820.47;5044574;28;1781;-35
2022/01/21 01:10:18;;;;;;;;;;;;;;;18.16;62.25;100829.34;5045391;28;1414;-34
2022/01/21 01:12:58;;;;;;;;;;;;;;;18.14;62.02;100813.41;5045332;28;1914;-34
2022/01/21 01:20:57;;;;;;;;;;;;;;;18.12;62.18;100828.75;5048726;28;1372;-34
2022/01/21 01:23:36;;;;;;;;;;;;;;;18.13;61.97;100835.81;5040809;28;1926;-35
2022/01/21 01:28:53;;;;;;;;;;;;;;;18.08;62.56;100833.53;5037770;28;1900;-34
2022/01/21 01:31:23;;;;;;;;;;;;;;;18.10;62.28;100833.38;5037132;28;1005;-35
2022/01/21 01:33:58;;;;;;;;;;;;;;;18.13;62.13;100827.78;5033039;28;1906;-34
2022/01/21 01:36:25;;;;;;;;;;;;;;;18.07;62.11;100815.75;5042449;28;2054;-35
2022/01/21 01:39:09;;;;;;;;;;;;;;;18.13;61.94;100827.78;5041917;28;1565;-35
2022/01/21 01:49:46;;;;;;;;;;;;;;;18.12;62.04;100812.69;5037358;28;1667;-34
2022/01/21 01:52:15;;;;;;;;;;;;;;;18.08;61.88;100805.91;5041224;28;1697;-36
2022/01/21 01:54:45;;;;;;;;;;;;;;;18.11;62.06;100807.50;5045661;28;1902;-37
2022/01/21 01:57:13;;;;;;;;;;;;;;;18.09;61.90;100800.44;5033962;28;1054;-35
2022/01/21 01:59:42;;;;;;;;;;;;;;;18.11;61.82;100821.72;5047716;28;1082;-34
2022/01/21 02:02:11;;;;;;;;;;;;;;;18.07;61.81;100817.59;5033398;28;1825;-34
2022/01/21 02:04:42;;;;;;;;;;;;;;;18.10;61.78;100811.97;5041054;28;1650;-34
2022/01/21 02:07:12;;;;;;;;;;;;;;;18.09;61.68;100827.19;5046465;28;1785;-34
2022/01/21 02:09:40;;;;;;;;;;;;;;;18.11;61.75;100859.19;5042305;28;1702;-35
2022/01/21 02:12:07;;;;;;;;;;;;;;;18.11;61.82;100863.69;5042153;28;1110;-34
2022/01/21 02:14:43;;;;;;;;;;;;;;;18.05;61.51;100865.88;5037484;28;1906;-35
2022/01/21 02:21:28;;;;;;;;;;;;;;;18.08;61.58;100851.41;5036829;28;1946;-35
2022/01/21 02:22:58;;;;;;;;;;;;;;;18.07;61.48;100855.91;5036280;28;1895;-35
2022/01/21 02:25:26;;;;;;;;;;;;;;;18.08;61.36;100859.44;5048242;28;1619;-35
2022/01/21 02:27:55;;;;;;;;;;;;;;;18.04;61.69;100855.31;5049963;28;1851;-35
2022/01/21 02:30:27;;;;;;;;;;;;;;;18.02;61.51;100867.97;5050563;28;1581;-35
2022/01/21 02:32:55;;;;;;;;;;;;;;;18.05;61.50;100879.28;5047252;28;1971;-35
2022/01/21 02:35:23;;;;;;;;;;;;;;;18.00;61.49;100876.09;5051791;28;1974;-34
2022/01/21 02:37:58;;;;;;;;;;;;;;;18.01;61.63;100876.97;5039749;28;1477;-35
2022/01/21 02:40:30;;;;;;;;;;;;;;;18.00;61.66;100876.09;5035998;28;1736;-35
2022/01/21 02:42:59;;;;;;;;;;;;;;;17.98;61.47;100872.72;5049561;28;1793;-35
2022/01/21 02:45:29;;;;;;;;;;;;;;;18.01;61.43;100882.34;5053635;28;1120;-35
2022/01/21 02:47:59;;;;;;;;;;;;;;;17.99;61.54;100870.91;5048277;28;1740;-35
2022/01/21 02:50:29;;;;;;;;;;;;;;;18.01;61.72;100876.97;5047313;28;1933;-35
2022/01/21 02:53:08;;;;;;;;;;;;;;;17.99;61.60;100873.59;5051758;28;1981;-35
2022/01/21 02:55:40;;;;;;;;;;;;;;;18.01;61.42;100882.34;5035783;28;1949;-35
2022/01/21 02:58:10;;;;;;;;;;;;;;;17.96;61.59;100880.00;5042331;28;1640;-34
2022/01/21 03:03:47;;;;;;;;;;;;;;;17.96;61.56;100911.28;5025601;28;1416;-35
2022/01/21 03:06:16;;;;;;;;;;;;;;;17.97;61.50;100913.00;5026536;28;1139;-34
2022/01/21 03:08:43;;;;;;;;;;;;;;;17.99;61.80;100905.69;5023412;28;1151;-35
2022/01/21 03:11:13;;;;;;;;;;;;;;;17.99;61.36;100884.28;5024279;28;2021;-35
2022/01/21 03:13:40;;;;;;;;;;;;;;;18.00;60.99;100885.97;5026533;28;1981;-35
2022/01/21 03:16:07;;;;;;;;;;;;;;;17.98;61.09;100886.09;5035358;28;1143;-35
2022/01/21 03:18:34;;;;;;;;;;;;;;;17.97;61.20;100871.03;5028114;28;1456;-35
2022/01/21 03:21:03;;;;;;;;;;;;;;;17.98;61.30;100883.41;5019336;28;1508;-34
2022/01/21 03:23:34;;;;;;;;;;;;;;;18.01;61.22;100887.69;5022390;28;1684;-32
2022/01/21 03:26:03;;;;;;;;;;;;;;;17.96;61.31;100896.06;5031835;28;1907;-34
2022/01/21 03:28:37;;;;;;;;;;;;;;;17.93;61.27;100890.16;5024793;28;1373;-34
2022/01/21 03:31:07;;;;;;;;;;;;;;;17.93;61.33;100895.50;5006171;28;1004;-35
2022/01/21 03:33:36;;;;;;;;;;;;;;;17.94;60.96;100890.00;5028242;28;1905;-35
2022/01/21 03:36:04;;;;;;;;;;;;;;;17.96;61.34;100897.91;5022984;28;1742;-35
2022/01/21 03:38:33;;;;;;;;;;;;;;;17.96;61.37;100895.22;5022007;28;1419;-35
2022/01/21 03:41:01;;;;;;;;;;;;;;;17.96;61.26;100897.91;5023293;28;1637;-34
2022/01/21 03:43:28;;;;;;;;;;;;;;;17.96;61.41;100895.22;5023671;28;1531;-35
2022/01/21 03:46:00;;;;;;;;;;;;;;;17.98;61.17;100898.63;5027400;28;1163;-35
2022/01/21 03:48:34;;;;;;;;;;;;;;;18.00;61.16;100896.69;5027168;28;1572;-35
2022/01/21 03:51:01;;;;;;;;;;;;;;;17.96;61.16;100892.56;5021183;28;1609;-34
2022/01/21 03:53:28;;;;;;;;;;;;;;;17.96;61.08;100901.41;5024286;28;1971;-34
2022/01/21 03:55:54;;;;;;;;;;;;;;;17.94;60.90;100892.66;5024909;28;1822;-35
2022/01/21 03:58:22;;;;;;;;;;;;;;;17.91;61.06;100898.28;5024260;28;1648;-35
2022/01/21 04:00:51;;;;;;;;;;;;;;;17.93;61.07;100914.22;5026983;28;1126;-35
2022/01/21 04:03:21;;;;;;;;;;;;;;;17.94;61.14;100905.19;5022734;28;1819;-34
2022/01/21 04:05:48;;;;;;;;;;;;;;;17.92;61.17;100904.47;5024461;28;1805;-34
2022/01/21 04:08:15;;;;;;;;;;;;;;;17.93;61.20;100911.56;5022237;28;1772;-35
2022/01/21 04:10:48;;;;;;;;;;;;;;;17.93;61.18;100919.56;5026659;28;1854;-35
2022/01/21 04:13:17;;;;;;;;;;;;;;;17.93;60.89;100930.28;5040637;28;1973;-35
2022/01/21 04:15:49;;;;;;;;;;;;;;;17.96;60.79;100921.97;5043136;28;1115;-35
2022/01/21 04:18:20;;;;;;;;;;;;;;;17.95;60.52;100914.94;5039853;28;2011;-34
2022/01/21 04:20:49;;;;;;;;;;;;;;;17.94;61.01;100924.78;5044108;28;1483;-35
2022/01/21 04:23:17;;;;;;;;;;;;;;;17.96;60.82;100938.03;5045552;28;1850;-34
2022/01/21 04:25:48;;;;;;;;;;;;;;;17.93;60.98;100928.44;5041303;28;1730;-34
2022/01/21 04:28:15;;;;;;;;;;;;;;;17.95;60.69;100925.66;5046304;28;1676;-34
2022/01/21 04:30:42;;;;;;;;;;;;;;;17.94;60.56;100931.97;5034216;28;1051;-35
2022/01/21 04:33:17;;;;;;;;;;;;;;;17.96;60.60;100930.00;5039328;28;1602;-35
2022/01/21 04:35:44;;;;;;;;;;;;;;;17.97;60.49;100945.09;5043011;28;1713;-35
2022/01/21 04:38:27;;;;;;;;;;;;;;;17.91;60.71;100933.06;5043278;28;1419;-34
2022/01/21 04:41:03;;;;;;;;;;;;;;;17.90;60.41;100934.03;5041297;28;1788;-34
2022/01/21 04:49:00;;;;;;;;;;;;;;;17.86;60.80;100949.47;5041032;28;1686;-34
2022/01/21 04:51:37;;;;;;;;;;;;;;;17.87;60.85;100951.19;5046696;28;1969;-35
2022/01/21 04:54:05;;;;;;;;;;;;;;;17.87;60.71;100950.34;5044549;28;2021;-35
2022/01/21 04:56:37;;;;;;;;;;;;;;;17.88;60.78;100971.59;5039741;28;1718;-34
2022/01/21 04:59:06;;;;;;;;;;;;;;;17.86;60.74;100970.88;5043271;28;1820;-35
2022/01/21 05:09:42;;;;;;;;;;;;;;;17.90;60.66;100974.16;5000124;28;1760;-35
2022/01/21 05:12:19;;;;;;;;;;;;;;;17.88;60.77;100963.56;5003711;28;1099;-34
2022/01/21 05:14:52;;;;;;;;;;;;;;;17.88;60.60;100973.44;5002467;28;1910;-34
2022/01/21 05:17:26;;;;;;;;;;;;;;;17.86;60.55;100980.72;5010376;28;1835;-35
2022/01/21 05:19:56;;;;;;;;;;;;;;;17.89;60.63;100976.00;5001084;28;1467;-35
2022/01/21 05:22:25;;;;;;;;;;;;;;;17.87;60.60;100977.94;5004285;28;1343;-35
2022/01/21 05:24:54;;;;;;;;;;;;;;;17.89;60.42;100986.69;4995549;28;1280;-35
2022/01/21 05:27:29;;;;;;;;;;;;;;;17.86;60.44;100975.38;5007097;28;1857;-32
2022/01/21 05:30:05;;;;;;;;;;;;;;;17.89;60.33;100992.03;5013098;28;1096;-34
2022/01/21 05:32:35;;;;;;;;;;;;;;;17.86;60.43;100984.25;5007013;28;1525;-35
2022/01/21 05:35:03;;;;;;;;;;;;;;;17.81;60.11;100981.06;5009203;28;1910;-34
2022/01/21 05:37:32;;;;;;;;;;;;;;;17.81;60.37;100967.69;5001211;28;1444;-35
2022/01/21 05:40:05;;;;;;;;;;;;;;;17.82;60.49;100952.50;5003634;28;1654;-35
2022/01/21 05:42:37;;;;;;;;;;;;;;;17.97;61.16;100961.16;5000109;28;1716;-35
2022/01/21 05:47:51;;;;;;;;;;;;;;;19.20;58.26;100964.31;5001606;28;1538;-35
2022/01/21 05:50:23;;;;;;;;;;;;;;;19.37;59.47;100968.25;4998796;28;1518;-35
2022/01/21 05:52:55;;;;;;;;;;;;;;;19.50;58.45;100962.66;4999674;28;1381;-34
2022/01/21 05:55:24;;;;;;;;;;;;;;;19.58;59.45;101013.81;5007588;28;1975;-35
2022/01/21 05:57:52;;;;;;;;;;;;;;;19.63;59.04;101043.75;4998513;28;1714;-34
2022/01/21 06:00:18;;;;;;;;;;;;;;;19.63;58.79;101022.31;4995410;28;1443;-35
2022/01/21 06:05:25;;;;;;;;;;;;;;;19.75;58.82;101041.88;5018778;28;2044;-34
2022/01/21 06:07:53;;;;;;;;;;;;;;;19.69;58.67;101048.59;5014605;28;1609;-35
2022/01/21 06:10:23;;;;;;;;;;;;;;;19.74;58.25;101059.81;5013078;28;1575;-35
2022/01/21 06:12:57;;;;;;;;;;;;;;;19.76;58.59;101060.53;5018366;28;1603;-35
2022/01/21 06:15:25;;;;;;;;;;;;;;;19.86;59.23;101088.28;5021942;28;1899;-35
2022/01/21 06:20:33;;;;;;;;;;;;;;;19.89;59.34;101099.72;5020168;28;1826;-35
2022/01/21 06:23:01;;;;;;;;;;;;;;;19.70;58.21;101081.66;5025705;28;1645;-35
2022/01/21 06:25:44;;;;;;;;;;;;;;;19.84;58.66;101100.97;5015594;28;2066;-35
2022/01/21 06:28:31;;;;;;;;;;;;;;;19.79;58.05;101107.72;5024225;28;1826;-35
2022/01/21 06:31:03;;;;;;;;;;;;;;;19.64;59.38;101116.06;4996905;28;1652;-35
2022/01/21 06:33:37;;;;;;;;;;;;;;;19.54;59.41;101128.56;5011443;28;1861;-35
2022/01/21 06:36:05;;;;;;;;;;;;;;;19.53;59.72;101129.53;5031509;28;1938;-35
2022/01/21 06:38:31;;;;;;;;;;;;;;;19.55;58.83;101118.69;5026236;28;1977;-34
2022/01/21 06:40:58;;;;;;;;;;;;;;;19.43;59.90;101121.41;5024194;28;1931;-33
2022/01/21 06:43:27;;;;;;;;;;;;;;;19.31;60.73;101135.88;5015634;28;1991;-35
2022/01/21 06:45:57;;;;;;;;;;;;;;;19.27;60.08;101123.69;5023693;28;1499;-34
2022/01/21 06:48:27;;;;;;;;;;;;;;;19.16;60.39;101121.06;5036354;28;1618;-34
2022/01/21 06:50:53;;;;;;;;;;;;;;;19.13;61.11;101137.41;5043310;28;1516;-35
2022/01/21 06:53:20;;;;;;;;;;;;;;;19.12;60.39;101130.34;5051312;28;1875;-33
2022/01/21 06:55:47;;;;;;;;;;;;;;;19.23;60.16;101123.09;5048192;28;1906;-34
2022/01/21 06:58:15;;;;;;;;;;;;;;;19.18;60.83;101124.47;5038116;28;1639;-34
2022/01/21 07:00:41;;;;;;;;;;;;;;;19.07;60.71;101123.53;5041805;28;1523;-35
2022/01/21 07:03:11;;;;;;;;;;;;;;;19.00;60.57;101113.44;5042076;28;1537;-35
2022/01/21 07:05:46;;;;;;;;;;;;;;;19.04;60.58;101115.75;5036582;28;1845;-35
2022/01/21 07:08:19;;;;;;;;;;;;;;;19.03;60.81;101110.50;5048298;28;1768;-34
2022/01/21 07:10:47;;;;;;;;;;;;;;;18.88;60.93;101101.94;5040306;28;1611;-35
2022/01/21 07:13:23;;;;;;;;;;;;;;;18.81;60.94;101090.84;5048770;28;1791;-35
2022/01/21 07:15:52;;;;;;;;;;;;;;;18.80;61.18;101089.16;5039290;28;1964;-35
2022/01/21 07:18:21;;;;;;;;;;;;;;;18.81;60.85;101095.38;5046851;28;1948;-35
2022/01/21 07:20:57;;;;;;;;;;;;;;;18.79;61.09;101091.94;5049475;28;1831;-35
2022/01/21 07:23:25;;;;;;;;;;;;;;;18.80;60.81;101088.28;5044765;28;1776;-35
2022/01/21 07:25:52;;;;;;;;;;;;;;;18.78;60.90;101098.25;5045382;28;1783;-34
2022/01/21 07:28:22;;;;;;;;;;;;;;;18.83;60.47;101104.13;5046706;28;1804;-34
2022/01/21 07:30:50;;;;;;;;;;;;;;;18.79;60.92;101091.94;5039256;28;1658;-34
2022/01/21 07:33:18;;;;;;;;;;;;;;;18.83;59.79;101104.97;5040081;28;1636;-35
2022/01/21 07:35:46;;;;;;;;;;;;;;;18.83;60.34;101104.13;5043269;28;1898;-35
2022/01/21 07:38:18;;;;;;;;;;;;;;;18.83;60.36;101104.13;5043497;28;1457;-35
2022/01/21 07:40:48;;;;;;;;;;;;;;;18.79;60.53;101098.16;5039431;28;1963;-35
2022/01/21 07:43:27;;;;;;;;;;;;;;;18.82;60.16;101114.00;5034919;28;1883;-34
2022/01/21 07:45:57;;;;;;;;;;;;;;;18.76;60.77;101102.88;5029768;28;1869;-35
2022/01/21 07:48:26;;;;;;;;;;;;;;;18.75;60.55;101107.41;5040002;28;1660;-34
2022/01/21 07:50:53;;;;;;;;;;;;;;;18.74;59.88;101104.84;5047095;28;1667;-35
2022/01/21 07:53:23;;;;;;;;;;;;;;;18.75;60.20;101111.91;5040225;28;2396;-35
2022/01/21 07:55:54;;;;;;;;;;;;;;;18.74;59.99;101119.09;5042630;28;2119;-33
2022/01/21 07:58:21;;;;;;;;;;;;;;;18.75;60.15;101118.13;5050629;28;1851;-33
2022/01/21 08:00:49;;;;;;;;;;;;;;;18.69;60.48;101124.81;5054883;28;1071;-33
2022/01/21 08:03:17;;;;;;;;;;;;;;;18.68;60.49;101122.25;5045781;28;1627;-33
2022/01/21 08:05:46;;;;;;;;;;;;;;;18.67;60.32;101136.63;5043815;28;1802;-33
2022/01/21 08:08:15;;;;;;;;;;;;;;;18.64;59.84;101127.03;5042506;28;1865;-34
2022/01/21 08:10:45;;;;;;;;;;;;;;;18.61;60.34;101132.63;5038689;28;1639;-34
2022/01/21 08:13:13;;;;;;;;;;;;;;;18.59;60.06;101145.28;5042830;28;1434;-33
2022/01/21 08:15:43;;;;;;;;;;;;;;;18.61;59.89;101146.03;5043840;28;1962;-33
2022/01/21 08:18:15;;;;;;;;;;;;;;;18.65;60.28;101147.47;5035271;28;2155;-33
2022/01/21 08:20:44;;;;;;;;;;;;;;;18.61;59.87;101146.03;5033337;28;1590;-33
2022/01/21 08:23:12;;;;;;;;;;;;;;;18.61;59.87;101156.72;5040083;28;1761;-33
2022/01/21 08:25:49;;;;;;;;;;;;;;;18.66;60.29;101140.28;5042499;28;1448;-34
2022/01/21 08:28:24;;;;;;;;;;;;;;;18.72;59.79;101149.66;5038021;28;1705;-33
2022/01/21 08:30:51;;;;;;;;;;;;;;;18.72;59.94;101152.34;5014292;28;1088;-34
2022/01/21 08:33:18;;;;;;;;;;;;;;;18.69;59.37;101170.34;5034533;28;1774;-33
2022/01/21 08:35:45;;;;;;;;;;;;;;;18.71;59.05;101166.72;5031975;28;1910;-33
2022/01/21 08:38:14;;;;;;;;;;;;;;;18.69;59.84;101151.59;5043270;28;1372;-33
2022/01/21 08:40:44;;;;;;;;;;;;;;;18.76;58.90;101183.25;5038897;28;1486;-33
2022/01/21 08:43:11;;;;;;;;;;;;;;;18.76;59.65;101183.25;5049318;28;2109;-34
2022/01/21 08:45:43;;;;;;;;;;;;;;;18.74;59.61;101175.38;5043745;28;1493;-33
2022/01/21 08:48:14;;;;;;;;;;;;;;;18.74;59.59;101174.50;5043845;28;1780;-33
2022/01/21 08:50:40;;;;;;;;;;;;;;;18.77;59.16;101193.00;5041286;28;1624;-33
2022/01/21 08:56:00;;;;;;;;;;;;;;;18.76;59.78;101177.91;5041269;28;2555;-33
2022/01/21 08:58:27;;;;;;;;;;;;;;;18.78;59.92;101197.38;5038801;28;2053;-34
2022/01/21 09:00:59;;;;;;;;;;;;;;;18.75;59.80;101170.84;5046344;28;1096;-34
2022/01/21 09:03:27;;;;;;;;;;;;;;;18.78;59.33;101198.25;5040964;28;1720;-34
2022/01/21 09:05:57;;;;;;;;;;;;;;;18.75;59.46;101177.06;5038496;28;1435;-33
2022/01/21 09:08:28;;;;;;;;;;;;;;;18.80;59.24;101188.28;5047570;28;1450;-33
2022/01/21 09:10:57;;;;;;;;;;;;;;;18.79;59.25;101188.38;5037945;28;1684;-33
2022/01/21 09:13:40;;;;;;;;;;;;;;;18.76;59.57;101177.91;5035132;28;1562;-34
2022/01/21 09:16:24;;;;;;;;;;;;;;;18.77;59.42;101182.28;5034785;28;1902;-32
2022/01/21 09:18:59;;;;;;;;;;;;;;;18.77;59.32;101174.25;5033481;28;1760;-34
2022/01/21 09:21:28;;;;;;;;;;;;;;;18.77;59.51;101182.28;5042580;28;1842;-33
2022/01/21 09:24:06;;;;;;;;;;;;;;;18.79;58.69;101169.63;5037904;28;1767;-33
2022/01/21 09:26:33;;;;;;;;;;;;;;;18.80;59.31;101166.00;5035086;28;1909;-33
2022/01/21 09:29:02;;;;;;;;;;;;;;;18.79;59.02;101161.59;5042894;28;1480;-34
2022/01/21 09:31:37;;;;;;;;;;;;;;;18.77;59.42;101163.53;5033208;28;1515;-33
2022/01/21 09:34:14;;;;;;;;;;;;;;;18.77;58.55;101182.28;5041588;28;1267;-33
2022/01/21 09:36:42;;;;;;;;;;;;;;;18.73;59.24;101168.28;5035586;28;1910;-35
2022/01/21 09:39:12;;;;;;;;;;;;;;;18.88;58.95;101156.38;5041227;28;1962;-34
2022/01/21 09:41:43;;;;;;;;;;;;;;;19.25;57.50;101157.84;5040975;28;1454;-34
2022/01/21 09:44:19;;;;;;;;;;;;;;;19.49;56.94;101144.19;5028603;28;1381;-33
2022/01/21 09:46:51;;;;;;;;;;;;;;;19.77;57.27;101164.19;5036009;28;1608;-34
2022/01/21 09:49:29;;;;;;;;;;;;;;;19.80;56.07;101142.47;5034889;28;1327;-33
2022/01/21 09:51:56;;;;;;;;;;;;;;;19.78;56.82;101147.13;5041694;28;1858;-35
2022/01/21 09:54:23;;;;;;;;;;;;;;;19.85;57.75;101142.91;5042241;28;1445;-33
2022/01/21 09:57:06;;;;;;;;;;;;;;;19.92;58.11;101155.84;5049245;28;1910;-33
2022/01/21 09:59:34;;;;;;;;;;;;;;;20.01;57.58;101158.53;5032958;28;1853;-33
2022/01/21 10:02:02;;;;;;;;;;;;;;;20.06;56.88;101145.59;5049764;28;1763;-33
2022/01/21 10:04:41;;;;;;;;;;;;;;;20.03;57.65;101143.19;5037754;28;1621;-33
2022/01/21 10:07:17;;;;;;;;;;;;;;;19.95;57.86;101124.19;5049256;28;1448;-33
2022/01/21 10:09:56;;;;;;;;;;;;;;;19.94;57.48;101137.75;5045712;28;1618;-33
2022/01/21 10:12:23;;;;;;;;;;;;;;;19.99;57.31;101119.41;5014701;28;2055;-33
2022/01/21 10:14:52;;;;;;;;;;;;;;;20.23;55.97;101157.56;5044828;28;2056;-33
2022/01/21 10:17:21;;;;;;;;;;;;;;;20.25;56.08;101125.19;5035221;28;1902;-35
2022/01/21 10:19:52;;;;;;;;;;;;;;;20.26;55.94;101126.88;5035395;28;1624;-35
2022/01/21 10:22:26;;;;;;;;;;;;;;;20.21;56.01;101129.13;5036704;28;1545;-34
2022/01/21 10:24:59;;;;;;;;;;;;;;;20.32;55.65;101120.97;5047108;28;1368;-34
2022/01/21 10:27:39;;;;;;;;;;;;;;;20.41;55.65;101122.84;5034738;28;1608;-34
2022/01/21 10:30:19;;;;;;;;;;;;;;;20.47;56.42;101137.56;5044418;28;1495;-36
2022/01/21 10:32:48;;;;;;;;;;;;;;;20.53;55.85;101122.72;5041898;28;1773;-36
2022/01/21 10:35:40;;;;;;;;;;;;;;;20.50;55.17;101118.50;5046562;28;1969;-35
2022/01/21 10:38:17;;;;;;;;;;;;;;;20.29;55.66;101115.03;5031172;28;1830;-36
2022/01/21 10:40:43;;;;;;;;;;;;;;;20.22;57.01;101104.81;5051510;28;1669;-36
2022/01/21 10:43:19;;;;;;;;;;;;;;;20.16;56.90;101104.53;5028602;28;1888;-35
2022/01/21 10:45:50;;;;;;;;;;;;;;;20.04;57.62;101111.81;5027087;28;1604;-36
2022/01/21 10:48:16;;;;;;;;;;;;;;;20.06;57.29;101088.38;5042256;28;1937;-35
2022/01/21 10:50:45;;;;;;;;;;;;;;;19.91;57.09;101114.69;5043125;28;1673;-36
2022/01/21 10:53:27;;;;;;;;;;;;;;;19.86;58.48;101090.94;5036650;28;1762;-37
2022/01/21 10:55:54;;;;;;;;;;;;;;;19.83;57.60;101103.78;5044145;28;1973;-36
2022/01/21 10:58:21;;;;;;;;;;;;;;;19.80;58.54;101083.44;5042853;28;1414;-36
2022/01/21 11:00:59;;;;;;;;;;;;;;;19.66;58.13;101091.81;5030867;28;1486;-36
2022/01/21 11:03:40;;;;;;;;;;;;;;;19.43;59.14;101091.91;5040723;28;1560;-36
2022/01/21 11:06:16;;;;;;;;;;;;;;;19.30;58.25;101080.56;5048455;28;1881;-36
2022/01/21 11:08:44;;;;;;;;;;;;;;;19.27;59.12;101088.84;5039744;28;1674;-35
2022/01/21 11:11:11;;;;;;;;;;;;;;;19.19;58.12;101094.84;5044769;28;1639;-35
2022/01/21 11:13:41;;;;;;;;;;;;;;;19.12;58.67;101082.06;5043281;28;1410;-36
2022/01/21 11:16:23;;;;;;;;;;;;;;;19.05;58.99;101087.97;5047518;28;1975;-37
2022/01/21 11:18:55;;;;;;;;;;;;;;;18.99;58.25;101083.13;5044874;28;1812;-36
2022/01/21 11:21:23;;;;;;;;;;;;;;;18.89;58.74;101087.53;5042500;28;1591;-37
2022/01/21 11:23:51;;;;;;;;;;;;;;;18.61;58.98;101100.47;5039962;28;1607;-37
2022/01/21 11:26:20;;;;;;;;;;;;;;;18.60;56.86;101089.88;5042529;28;1608;-37
2022/01/21 11:28:50;;;;;;;;;;;;;;;18.75;54.50;101083.28;5039575;28;1678;-36
2022/01/21 11:31:18;;;;;;;;;;;;;;;18.69;56.79;101087.31;5038147;28;1606;-37
2022/01/21 11:33:44;;;;;;;;;;;;;;;18.67;56.70;101078.56;5040746;28;1724;-37
2022/01/21 11:36:21;;;;;;;;;;;;;;;18.72;56.93;101075.50;5048962;28;1927;-36
2022/01/21 11:38:55;;;;;;;;;;;;;;;18.76;57.45;101082.31;5042200;28;1477;-37
2022/01/21 11:41:35;;;;;;;;;;;;;;;18.85;57.51;101083.41;5044810;28;1842;-36
2022/01/21 11:44:06;;;;;;;;;;;;;;;18.74;57.63;101088.75;5042760;28;1757;-37
2022/01/21 11:49:20;;;;;;;;;;;;;;;18.68;58.26;101080.28;4961359;28;1492;-37
2022/01/21 11:51:48;;;;;;;;;;;;;;;18.71;57.84;101028.25;5037227;28;1148;-36
2022/01/21 11:54:24;;;;;;;;;;;;;;;19.35;57.23;101067.59;5040789;28;1577;-37
2022/01/21 11:57:02;;;;;;;;;;;;;;;19.63;57.14;101086.69;5047757;28;1980;-36
2022/01/21 11:59:48;;;;;;;;;;;;;;;19.90;56.64;101079.97;5036757;28;1597;-36
2022/01/21 12:02:19;;;;;;;;;;;;;;;20.01;55.79;101079.84;5054054;28;1834;-36
2022/01/21 12:04:52;;;;;;;;;;;;;;;20.02;56.76;101066.31;5050346;28;1739;-35
2022/01/21 12:07:51;;;;;;;;;;;;;;;20.15;56.06;101079.47;5044691;28;1724;-34
2022/01/21 12:10:29;;;;;;;;;;;;;;;20.14;55.51;101069.75;5040951;28;1417;-34
2022/01/21 12:13:05;;;;;;;;;;;;;;;20.21;56.08;101065.53;5040036;28;1756;-35
2022/01/21 12:15:53;;;;;;;;;;;;;;;20.20;56.29;101052.25;5040915;28;1972;-35
2022/01/21 12:18:41;;;;;;;;;;;;;;;20.17;56.44;101064.09;5032962;28;2010;-34
2022/01/21 12:21:27;;;;;;;;;;;;;;;20.22;55.44;101079.81;5032606;28;1752;-34
2022/01/21 12:23:54;;;;;;;;;;;;;;;20.09;56.66;101066.59;5041364;28;1686;-36
2022/01/21 12:26:29;;;;;;;;;;;;;;;20.03;57.36;101062.66;5041952;28;1622;-35
2022/01/21 12:29:14;;;;;;;;;;;;;;;20.01;56.70;101066.44;5034794;28;1574;-34
2022/01/21 12:31:55;;;;;;;;;;;;;;;19.80;57.92;101066.50;5034504;28;1513;-35
2022/01/21 12:34:24;;;;;;;;;;;;;;;19.71;57.76;101053.84;5037903;28;1599;-36
2022/01/21 12:36:52;;;;;;;;;;;;;;;19.63;57.99;101055.34;5052413;28;1902;-35
2022/01/21 12:39:36;;;;;;;;;;;;;;;19.57;57.97;101055.88;5045578;28;1938;-35
2022/01/21 12:42:18;;;;;;;;;;;;;;;19.43;58.02;101059.72;5049370;28;1170;-35
2022/01/21 12:44:51;;;;;;;;;;;;;;;19.32;58.00;101057.13;5046474;28;1686;-35
2022/01/21 12:47:35;;;;;;;;;;;;;;;19.31;58.17;101071.50;5050029;28;2010;-35
2022/01/21 12:50:11;;;;;;;;;;;;;;;19.24;58.04;101081.06;5039930;28;1857;-36
2022/01/21 12:52:50;;;;;;;;;;;;;;;19.24;58.80;101071.19;5044401;28;1741;-34
2022/01/21 12:56:03;;;;;;;;;;;;;;;19.27;58.04;101064.72;5048770;28;1688;-34
2022/01/21 12:58:39;;;;;;;;;;;;;;;19.17;58.70;101069.16;5040449;28;1806;-34
2022/01/21 13:01:10;;;;;;;;;;;;;;;19.19;59.27;101083.28;5053842;28;1039;-34
2022/01/21 13:03:39;;;;;;;;;;;;;;;19.16;58.20;101079.03;5026111;28;1839;-36
2022/01/21 13:06:13;;;;;;;;;;;;;;;19.13;58.45;101087.31;5039955;28;1913;-35
2022/01/21 13:08:43;;;;;;;;;;;;;;;19.02;59.47;101084.69;5043946;28;1940;-35
2022/01/21 13:11:16;;;;;;;;;;;;;;;19.01;59.85;101091.03;5051505;28;2016;-35
2022/01/21 13:13:59;;;;;;;;;;;;;;;19.05;59.99;101085.28;5041844;28;1732;-34
2022/01/21 13:16:29;;;;;;;;;;;;;;;19.01;59.82;101083.00;5050595;28;1906;-35
2022/01/21 13:19:00;;;;;;;;;;;;;;;19.01;59.11;101086.50;5045771;28;1835;-35
2022/01/21 13:21:26;;;;;;;;;;;;;;;18.92;59.46;101076.59;5042278;28;1962;-35
2022/01/21 13:26:52;;;;;;;;;;;;;;;18.77;60.05;101083.16;5039092;28;2464;-35
2022/01/21 13:29:29;;;;;;;;;;;;;;;18.75;60.12;101080.59;5044137;28;2029;-35
2022/01/21 13:32:05;;;;;;;;;;;;;;;18.72;59.92;101080.88;5022989;28;1684;-36
2022/01/21 13:34:33;;;;;;;;;;;;;;;18.76;60.20;101093.03;5029983;28;1747;-37
2022/01/21 13:37:00;;;;;;;;;;;;;;;18.74;59.64;101083.41;5039805;28;1910;-35
2022/01/21 13:39:30;;;;;;;;;;;;;;;18.83;59.76;101093.41;5040104;28;1472;-35
2022/01/21 13:42:05;;;;;;;;;;;;;;;19.07;59.48;101086.00;5038688;28;1942;-35
2022/01/21 13:44:36;;;;;;;;;;;;;;;19.20;59.19;101079.59;5032181;28;1922;-35
2022/01/21 13:47:05;;;;;;;;;;;;;;;19.28;58.38;101082.50;5024321;28;1485;-35
2022/01/21 13:49:35;;;;;;;;;;;;;;;19.34;58.62;101076.63;5026153;28;1635;-35
2022/01/21 13:52:03;;;;;;;;;;;;;;;19.44;58.04;101093.63;5040101;28;1786;-36
2022/01/21 13:54:34;;;;;;;;;;;;;;;19.47;58.53;101081.78;5041348;28;1032;-35
2022/01/21 13:57:02;;;;;;;;;;;;;;;19.51;58.59;101088.59;5025279;28;1906;-37
2022/01/21 13:59:29;;;;;;;;;;;;;;;19.56;57.84;101082.84;5032790;28;1615;-35
2022/01/21 14:02:10;;;;;;;;;;;;;;;19.57;58.42;101087.22;5039098;28;1783;-36
2022/01/21 14:04:40;;;;;;;;;;;;;;;19.62;57.78;101106.47;5041379;28;1552;-35
2022/01/21 14:07:20;;;;;;;;;;;;;;;19.59;57.99;101082.56;5040560;28;1613;-36
2022/01/21 14:09:47;;;;;;;;;;;;;;;19.57;58.01;101087.22;5028001;28;2022;-35